Latest Weather Observations for Ferny Creek

IDV60801

Issued at 1:02 pm EDT Monday 26 January 2015 (issued every 30 minutes, with the page automatically refreshed every 10 minutes)

About weather observations | Map of weather stations | Latest weather observations for VIC | Other Formats
Station Details ID: 086266 Name: FERNY CREEK Lat: -37.87 Lon: 145.35 Height: 512.9 m
Data from the previous 72 hours. | See also: Recent months at Ferny Creek
Date/Time
EDT
Temp
°C
App
Temp
°C
Dew
Point
Rel
Hum
%
Delta-T
°C
Wind Press
QNH
hPa
Press
MSL
hPa
Rain
since 9 am
mm
Dir
 
Spd
km/h
Gust
km/h
Spd
kts
Gust
kts
26/01:00pm 13.4 11.3 6.5 63 3.4 SE 7 19 4 10 1016.9 1015.3 0.0
26/12:30pm 13.7 11.6 6.8 63 3.4 S 7 20 4 11 1016.7 1015.2 0.0
26/12:00pm 12.9 11.3 6.3 64 3.2 SW 4 11 2 6 1016.9 1015.3 0.0
26/11:30am 13.0 11.2 7.0 67 3.0 SSW 6 11 3 6 1017.0 1015.5 0.0
26/11:00am 13.0 11.0 7.2 68 2.9 SE 7 13 4 7 1016.9 1015.3 0.0
26/10:30am 11.6 9.9 7.5 76 2.0 S 6 9 3 5 1016.9 1015.3 0.0
26/10:00am 10.9 9.5 7.2 78 1.8 SSW 4 7 2 4 1016.6 1015.1 0.0
26/09:30am 11.5 9.9 6.4 71 2.5 SSE 4 9 2 5 1016.9 1015.3 0.0
26/09:00am 11.8 10.2 6.5 70 2.6 SW 4 13 2 7 1016.5 1015.0 2.8
26/08:30am 11.1 9.9 6.6 74 2.2 SE 2 4 1 2 1016.3 1014.8 2.8
26/08:00am 10.2 9.4 6.7 79 1.7 CALM 0 0 0 0 1016.1 1014.6 2.8
26/07:30am 11.0 9.9 7.1 77 1.9 SE 2 6 1 3 1015.4 1013.9 2.8
26/07:00am 8.0 7.1 6.1 88 0.9 CALM 0 0 0 0 1015.1 1013.5 2.6
26/06:30am 7.3 6.4 5.9 91 0.7 CALM 0 2 0 1 1014.9 1013.3 2.6
26/06:00am 7.8 7.0 6.7 93 0.5 CALM 0 4 0 2 1014.8 1013.2 2.6
26/05:30am 8.1 6.6 6.9 92 0.6 WSW 4 11 2 6 1014.5 1013.0 2.6
26/05:00am 8.0 7.2 6.6 91 0.7 CALM 0 0 0 0 1014.1 1012.6 2.6
26/04:30am 7.9 7.1 6.5 91 0.7 CALM 0 4 0 2 1014.1 1012.6 2.6
26/04:00am 8.2 7.5 7.0 92 0.6 CALM 0 0 0 0 1013.9 1012.4 1.4
26/03:30am 8.4 7.2 6.4 87 0.9 SSE 2 6 1 3 1014.0 1012.5 0.8
26/03:00am 7.8 6.7 5.1 83 1.2 CALM 0 0 0 0 1013.8 1012.3 0.0
26/02:30am 7.8 6.3 4.9 82 1.3 SW 2 6 1 3 1013.7 1012.2 0.0
26/02:00am 7.9 6.3 4.7 80 1.5 WSW 2 6 1 3 1013.6 1012.1 0.0
26/01:30am 8.0 6.4 4.6 79 1.5 SW 2 6 1 3 1013.7 1012.2 0.0
26/01:00am 8.2 7.1 5.1 81 1.4 CALM 0 4 0 2 1013.7 1012.2 0.0
26/12:30am 8.5 7.5 5.6 82 1.4 CALM 0 4 0 2 1013.6 1012.1 0.0
26/12:00am 9.7 8.8 5.9 77 1.8 CALM 0 0 0 0 1013.8 1012.3 0.0
 
Date/Time
EDT
Temp
°C
App
Temp
°C
Dew
Point
Rel
Hum
%
Delta-T
°C
Wind Press
QNH
hPa
Press
MSL
hPa
Rain
since 9 am
mm
Dir
 
Spd
km/h
Gust
km/h
Spd
kts
Gust
kts
25/11:30pm 10.0 9.3 6.9 81 1.5 CALM 0 4 0 2 1013.6 1012.1 0.0
25/11:00pm 10.1 8.7 5.5 73 2.2 SSE 2 7 1 4 1013.6 1012.1 0.0
25/10:30pm 10.6 9.2 5.6 71 2.4 SSW 2 4 1 2 1013.5 1012.0 0.0
25/10:00pm 10.7 9.3 5.7 71 2.4 ESE 2 4 1 2 1013.5 1012.0 0.0
25/09:30pm 10.8 9.5 5.8 71 2.4 ESE 2 4 1 2 1013.1 1011.5 0.0
25/09:00pm 11.1 9.0 6.0 71 2.4 SSW 6 13 3 7 1012.9 1011.3 0.0
25/08:30pm 10.8 9.1 5.8 71 2.4 WSW 4 11 2 6 1012.5 1011.0 0.0
25/08:00pm 11.5 9.6 6.6 72 2.4 WSW 6 13 3 7 1012.2 1010.7 0.0
25/07:30pm 12.3 10.3 7.2 71 2.5 SW 7 22 4 12 1011.9 1010.4 0.0
25/07:00pm 12.7 9.8 6.7 67 3.0 SW 11 24 6 13 1011.5 1009.9 0.0
25/06:30pm 12.7 10.2 6.5 66 3.0 WSW 9 32 5 17 1011.1 1009.5 0.0
25/06:00pm 12.6 10.2 7.1 69 2.7 WSW 9 26 5 14 1011.1 1009.5 0.0
25/05:30pm 14.2 12.1 6.8 61 3.7 WSW 7 20 4 11 1010.5 1009.0 0.0
25/05:00pm 15.4 13.5 7.7 60 4.0 WSW 7 20 4 11 1010.3 1008.8 0.0
25/04:30pm 15.4 12.1 6.4 55 4.5 WSW 13 24 7 13 1009.9 1008.3 0.0
25/04:00pm 16.6 13.9 3.7 42 6.2 W 7 17 4 9 1009.5 1007.9 0.0
25/03:30pm 15.7 12.7 5.9 52 4.9 WSW 11 22 6 12 1009.5 1007.9 0.0
25/03:00pm 15.3 12.3 6.1 54 4.6 WSW 11 28 6 15 1009.6 1008.0 0.0
25/02:30pm 17.3 15.1 6.2 48 5.6 WSW 7 22 4 12 1009.3 1007.7 0.0
25/02:00pm 16.4 14.0 5.4 48 5.4 WSW 7 15 4 8 1009.1 1007.5 0.0
25/01:30pm 15.6 13.7 6.6 55 4.5 WSW 6 20 3 11 1009.1 1007.5 0.0
25/01:00pm 16.1 13.9 6.0 51 5.0 WSW 7 19 4 10 1009.0 1007.4 0.0
25/12:30pm 16.2 14.1 6.6 53 4.8 W 7 20 4 11 1008.8 1007.2 0.0
25/12:00pm 14.9 12.0 4.6 50 4.9 WSW 9 20 5 11 1008.8 1007.2 0.0
25/11:30am 14.6 12.7 6.9 60 3.9 WSW 6 17 3 9 1008.7 1007.1 0.0
25/11:00am 14.5 12.7 7.3 62 3.6 WSW 6 13 3 7 1008.4 1006.9 0.0
25/10:30am 13.6 12.7 9.1 74 2.3 W 4 9 2 5 1008.3 1006.7 0.0
25/10:00am 13.3 12.3 8.8 74 2.3 WSW 4 9 2 5 1008.0 1006.4 0.0
25/09:30am 12.3 11.3 9.0 80 1.7 WSW 4 11 2 6 1007.5 1005.9 0.0
25/09:00am 13.2 12.3 10.6 84 1.4 W 6 15 3 8 1007.4 1005.8 0.0
25/08:30am 12.3 11.6 10.0 86 1.2 W 4 15 2 8 1007.3 1005.7 0.0
25/08:00am 12.2 11.6 10.4 89 1.0 W 4 7 2 4 1007.0 1005.4 0.0
25/07:30am 11.4 10.8 10.3 93 0.6 W 4 7 2 4 1006.7 1005.1 0.0
25/07:00am 11.1 10.8 10.0 93 0.6 W 2 7 1 4 1006.1 1004.5 0.0
25/06:30am 11.1 9.6 9.2 88 1.0 WSW 7 19 4 10 1005.6 1004.0 0.0
25/06:00am 12.4 11.3 10.8 90 0.9 W 7 19 4 10 1005.2 1003.6 0.0
25/05:30am 12.9 13.0 11.5 91 0.8 W 2 4 1 2 1004.6 1002.9 0.0
25/05:00am 12.5 12.5 11.2 92 0.7 WNW 2 6 1 3 1004.0 1002.4 0.0
25/04:30am 12.6 12.2 11.0 90 0.9 NW 4 7 2 4 1003.9 1002.3 0.0
25/04:00am 12.9 12.5 11.1 89 1.0 WNW 4 9 2 5 1003.7 1002.1 0.0
25/03:30am 13.9 14.0 11.4 85 1.4 NW 2 7 1 4 1003.6 1002.0 0.0
25/03:00am 14.6 14.8 11.9 84 1.5 N 2 4 1 2 1003.5 1001.9 0.0
25/02:30am 14.4 14.1 10.2 76 2.2 WNW 2 4 1 2 1004.0 1002.4 0.0
25/02:00am 14.3 14.5 10.5 78 2.1 CALM 0 0 0 0 1004.1 1002.5 0.0
25/01:30am 14.2 13.7 10.8 80 1.8 SSW 4 7 2 4 1004.2 1002.6 0.0
25/01:00am 13.3 12.8 9.4 77 2.0 SW 2 6 1 3 1004.2 1002.6 0.0
25/12:30am 13.4 12.8 9.1 75 2.2 SSE 2 7 1 4 1004.6 1002.9 0.0
25/12:00am 13.5 12.6 9.2 75 2.3 SE 4 9 2 5 1004.5 1002.8 0.0
 
Date/Time
EDT
Temp
°C
App
Temp
°C
Dew
Point
Rel
Hum
%
Delta-T
°C
Wind Press
QNH
hPa
Press
MSL
hPa
Rain
since 9 am
mm
Dir
 
Spd
km/h
Gust
km/h
Spd
kts
Gust
kts
24/11:30pm 13.8 13.5 11.3 85 1.4 SSE 4 11 2 6 1004.7 1003.0 0.0
24/11:00pm 14.4 14.2 13.1 92 0.7 SSE 6 9 3 5 1005.0 1003.4 0.0
24/10:30pm 14.6 14.9 13.3 92 0.7 SE 4 7 2 4 1004.9 1003.2 0.0
24/10:00pm 14.8 14.7 13.3 91 0.9 SSE 6 15 3 8 1004.9 1003.2 0.0
24/09:30pm 15.4 15.4 12.3 82 1.7 ESE 4 9 2 5 1004.8 1003.1 0.0
24/09:00pm 16.2 15.8 12.4 78 2.2 ESE 6 13 3 7 1004.5 1002.8 0.0
24/08:30pm 17.2 16.9 12.7 75 2.6 SE 6 13 3 7 1004.0 1002.4 0.0
24/08:00pm 18.1 18.0 13.2 73 2.8 SE 6 15 3 8 1003.7 1002.1 0.0
24/07:30pm 19.0 18.8 13.6 71 3.2 SE 7 17 4 9 1003.5 1001.9 0.0
24/07:00pm 20.5 20.3 13.7 65 4.0 SE 7 13 4 7 1003.2 1001.5 0.0
24/06:30pm 21.4 21.5 13.8 62 4.5 ESE 6 11 3 6 1003.1 1001.4 0.0
24/06:00pm 22.6 22.1 13.7 57 5.3 SSE 9 17 5 9 1003.2 1001.5 0.0
24/05:30pm 24.6 23.9 11.5 44 7.6 SW 6 13 3 7 1003.2 1001.5 0.0
24/05:00pm 24.9 24.7 13.1 48 7.0 S 6 15 3 8 1003.1 1001.4 0.0
24/04:30pm 25.0 24.7 13.2 48 7.0 SW 7 17 4 9 1003.6 1002.0 0.0
24/04:00pm 25.3 25.7 13.8 49 7.0 SW 4 11 2 6 1003.8 1002.2 0.0
24/03:30pm 24.8 24.5 13.4 49 6.8 SW 7 15 4 8 1004.0 1002.4 0.0
24/03:00pm 24.8 24.8 13.7 50 6.7 SSW 6 11 3 6 1004.2 1002.6 0.0
24/02:30pm 24.4 24.3 13.9 52 6.3 SSW 7 13 4 7 1004.8 1003.1 0.0
24/02:00pm 24.8 24.5 12.7 47 7.2 S 6 15 3 8 1005.1 1003.5 0.0
24/01:30pm 24.9 24.9 13.5 49 6.8 SW 6 9 3 5 1005.3 1003.7 0.0
24/01:00pm 23.8 23.6 13.1 51 6.3 NW 6 11 3 6 1005.7 1004.1 0.0
24/12:30pm 23.5 23.7 13.1 52 6.1 NNW 4 7 2 4 1005.9 1004.3 0.0
24/12:00pm 21.8 21.6 12.9 57 5.2 W 6 13 3 7 1006.2 1004.6 0.0
24/11:30am 21.5 21.3 12.9 58 5.0 NNW 6 9 3 5 1006.7 1005.1 0.0
24/11:00am 20.6 20.4 13.1 62 4.4 N 6 11 3 6 1006.7 1005.1 0.0
24/10:30am 18.8 19.3 13.9 73 2.9 NNW 4 7 2 4 1007.0 1005.4 0.0
24/10:00am 18.6 19.1 13.9 74 2.8 NW 4 9 2 5 1007.2 1005.6 0.0
24/09:30am 17.5 17.0 13.8 79 2.2 WNW 9 11 5 6 1007.2 1005.6 0.0
24/09:00am 16.8 17.2 13.7 82 1.8 WSW 4 6 2 3 1006.8 1005.2 0.0
24/08:30am 14.3 14.9 13.0 92 0.7 W 2 4 1 2 1006.8 1005.2 0.0
24/08:00am 13.5 14.3 12.7 95 0.4 CALM 0 2 0 1 1006.7 1005.1 0.0
24/07:30am 13.4 14.2 12.6 95 0.4 CALM 0 4 0 2 1006.1 1004.5 0.0
24/07:00am 13.1 13.4 12.2 94 0.5 N 2 4 1 2 1006.5 1004.8 0.0
24/06:30am 13.2 14.0 12.4 95 0.4 CALM 0 0 0 0 1006.6 1004.9 0.0
24/06:00am 13.2 14.0 12.6 96 0.3 CALM 0 0 0 0 1006.5 1004.8 0.0
24/05:30am 13.0 13.4 12.4 96 0.3 ENE 2 2 1 1 1006.6 1004.9 0.0
24/05:00am 12.8 13.1 12.2 96 0.3 ENE 2 6 1 3 1006.3 1004.7 0.0
24/04:30am 12.8 12.7 12.0 95 0.4 ENE 4 7 2 4 1006.5 1004.8 0.0
24/04:00am 12.9 12.4 12.0 94 0.5 E 6 7 3 4 1006.6 1004.9 0.0
24/03:30am 12.9 12.8 12.0 94 0.5 E 4 9 2 5 1007.0 1005.4 0.0
24/03:00am 13.1 12.3 11.8 92 0.7 E 7 11 4 6 1007.1 1005.5 0.0
24/02:30am 13.2 12.6 11.6 90 0.9 ESE 6 9 3 5 1007.4 1005.8 0.0
24/02:00am 13.1 12.4 11.5 90 0.9 ESE 6 11 3 6 1007.7 1006.1 0.0
24/01:30am 12.9 12.2 11.3 90 0.9 ESE 6 13 3 7 1008.0 1006.4 0.0
24/01:00am 12.8 12.0 11.2 90 0.9 ESE 6 9 3 5 1008.4 1006.9 0.0
24/12:30am 12.6 11.7 10.7 88 1.0 ESE 6 11 3 6 1008.3 1006.7 0.0
24/12:00am 12.4 11.3 10.6 89 1.0 ESE 7 13 4 7 1008.7 1007.1 0.0
 
Date/Time
EDT
Temp
°C
App
Temp
°C
Dew
Point
Rel
Hum
%
Delta-T
°C
Wind Press
QNH
hPa
Press
MSL
hPa
Rain
since 9 am
mm
Dir
 
Spd
km/h
Gust
km/h
Spd
kts
Gust
kts
23/11:30pm 12.4 10.9 10.5 88 1.0 ESE 9 17 5 9 1008.9 1007.3 0.0
23/11:00pm 12.4 11.3 10.5 88 1.0 ESE 7 13 4 7 1009.2 1007.6 0.0
23/10:30pm 12.7 11.2 10.6 87 1.1 ESE 9 15 5 8 1009.5 1007.9 0.0
23/10:00pm 13.0 11.6 10.9 87 1.1 ESE 9 15 5 8 1009.7 1008.1 0.0
23/09:30pm 13.4 11.7 11.1 86 1.2 ESE 11 19 6 10 1009.6 1008.0 0.0
23/09:00pm 14.0 13.1 11.5 85 1.4 ESE 7 20 4 11 1009.6 1008.0 0.0
23/08:30pm 14.0 12.7 11.3 84 1.5 ESE 9 22 5 12 1009.4 1007.8 0.0
23/08:00pm 14.4 13.2 11.6 83 1.5 ESE 9 20 5 11 1009.5 1007.9 0.0
23/07:30pm 14.9 14.0 11.3 79 2.0 ESE 7 17 4 9 1009.1 1007.5 0.0
23/07:00pm 15.3 14.1 11.5 78 2.1 ESE 9 15 5 8 1008.8 1007.2 0.0
23/06:30pm 15.6 14.4 11.6 77 2.2 ESE 9 22 5 12 1008.4 1006.9 0.0
23/06:00pm 17.2 16.3 12.7 75 2.6 SE 9 22 5 12 1008.3 1006.7 0.0
23/05:30pm 18.4 18.2 13.5 73 2.8 ESE 7 15 4 8 1007.9 1006.3 0.0
23/05:00pm 18.0 17.8 13.7 76 2.5 SE 7 15 4 8 1007.9 1006.3 0.0
23/04:30pm 19.1 18.6 13.9 72 3.1 SE 9 22 5 12 1007.8 1006.2 0.0
23/04:00pm 21.9 21.8 15.0 65 4.2 S 9 17 5 9 1007.5 1005.9 0.0
23/03:30pm 22.7 22.8 14.5 60 4.9 SSW 7 17 4 9 1007.7 1006.1 0.0
23/03:00pm 22.7 22.7 14.3 59 5.1 SSW 7 15 4 8 1007.7 1006.1 0.0
23/02:30pm 23.1 23.2 13.8 55 5.5 W 6 13 3 7 1007.9 1006.3 0.0
23/02:00pm 22.6 21.8 12.8 54 5.8 SW 9 19 5 10 1008.1 1006.5 0.0
23/01:30pm 22.8 22.7 14.9 61 4.8 SW 9 20 5 11 1008.2 1006.6 0.0

Other Formats:

Comma delimited format used in spreadsheet applications
http://www.bom.gov.au/fwo/IDV60801/IDV60801.94872.axf

JavaScript Object Notation format (JSON) in row-major order
http://www.bom.gov.au/fwo/IDV60801/IDV60801.94872.json